Time;durP1;ratioP1;P1;durP2;ratioP2;P2;SDS_P1;SDS_P2;PMS_P1;PMS_P2;Temp;Humidity;BMP_temperature;BMP_pressure;BME280_temperature;BME280_humidity;BME280_pressure;Samples;Min_cycle;Max_cycle;Signal;HPM_P1;HPM_P2
2020/12/09 00:01:22;;;;;;;18.00;13.73;;;4.90;99.90;;;;;;5043624;28;20416;-39
2020/12/09 00:03:48;;;;;;;17.80;14.73;;;4.80;99.90;;;;;;5046149;28;20284;-39
2020/12/09 00:06:14;;;;;;;18.33;14.40;;;4.70;99.90;;;;;;5047490;28;20217;-39
2020/12/09 00:08:39;;;;;;;16.90;13.40;;;4.70;99.90;;;;;;5047292;28;20185;-39
2020/12/09 00:11:07;;;;;;;18.80;15.63;;;4.80;99.90;;;;;;5047418;28;20301;-39
2020/12/09 00:13:33;;;;;;;18.13;14.33;;;4.70;99.90;;;;;;5046469;28;20194;-39
2020/12/09 00:15:58;;;;;;;17.10;14.57;;;4.80;99.90;;;;;;5047355;28;20469;-38
2020/12/09 00:18:24;;;;;;;16.67;14.10;;;4.60;99.90;;;;;;5045687;28;20205;-38
2020/12/09 00:20:50;;;;;;;20.10;15.27;;;4.60;99.90;;;;;;5046395;28;20198;-38
2020/12/09 00:23:16;;;;;;;17.23;14.43;;;4.60;99.90;;;;;;5046664;28;20733;-38
2020/12/09 00:25:41;;;;;;;18.83;14.97;;;4.60;99.90;;;;;;5046996;28;20299;-39
2020/12/09 00:28:07;;;;;;;17.47;14.97;;;4.80;99.90;;;;;;5047220;28;20361;-38
2020/12/09 00:30:33;;;;;;;18.00;13.43;;;4.70;99.90;;;;;;5047076;28;20185;-39
2020/12/09 00:32:58;;;;;;;18.17;14.90;;;4.60;99.90;;;;;;5046282;28;20190;-39
2020/12/09 00:35:24;;;;;;;18.87;14.33;;;4.60;99.90;;;;;;5047090;28;20652;-38
2020/12/09 00:37:50;;;;;;;18.97;14.50;;;4.80;99.90;;;;;;5046988;28;20201;-38
2020/12/09 00:40:16;;;;;;;19.40;15.00;;;4.90;99.90;;;;;;5047575;28;20389;-38
2020/12/09 00:42:41;;;;;;;18.27;15.20;;;4.60;99.90;;;;;;5050886;28;20553;-39
2020/12/09 00:45:07;;;;;;;22.70;15.20;;;4.50;99.90;;;;;;5049721;28;20460;-38
2020/12/09 00:47:33;;;;;;;18.50;16.27;;;4.80;99.90;;;;;;5049327;28;20278;-38
2020/12/09 00:52:37;;;;;;;19.57;16.67;;;4.70;99.90;;;;;;5050577;28;20254;-39
2020/12/09 00:55:03;;;;;;;17.63;14.73;;;4.50;99.90;;;;;;5049719;28;20432;-38
2020/12/09 00:57:28;;;;;;;18.17;15.23;;;4.90;99.90;;;;;;5050545;28;20420;-38
2020/12/09 00:59:54;;;;;;;19.30;14.93;;;4.70;99.90;;;;;;5049213;28;20521;-38
2020/12/09 01:02:20;;;;;;;21.83;16.63;;;4.70;99.90;;;;;;5050150;28;20447;-39
2020/12/09 01:04:49;;;;;;;20.87;15.07;;;4.90;99.90;;;;;;5049989;28;20210;-38
2020/12/09 01:07:19;;;;;;;20.07;15.63;;;4.90;99.90;;;;;;5050136;28;20205;-39
2020/12/09 01:09:46;;;;;;;19.73;15.67;;;4.90;99.90;;;;;;5050857;28;20914;-39
2020/12/09 01:12:12;;;;;;;20.97;16.87;;;4.60;99.90;;;;;;5050008;28;20424;-38
2020/12/09 01:14:39;;;;;;;20.10;16.07;;;4.70;99.90;;;;;;5049362;28;20423;-39
2020/12/09 01:17:04;;;;;;;18.43;15.60;;;4.80;99.90;;;;;;5050195;28;20452;-38
2020/12/09 01:19:30;;;;;;;21.40;16.27;;;4.80;99.90;;;;;;5050525;28;20651;-40
2020/12/09 01:21:56;;;;;;;19.50;15.07;;;5.00;99.90;;;;;;5050060;28;20657;-39
2020/12/09 01:24:21;;;;;;;20.90;16.27;;;4.70;99.90;;;;;;5049961;28;20193;-38
2020/12/09 01:26:48;;;;;;;18.03;15.10;;;5.10;99.90;;;;;;5049803;28;20239;-39
2020/12/09 01:29:14;;;;;;;19.17;15.33;;;5.10;99.90;;;;;;5049693;28;20203;-38
2020/12/09 01:31:40;;;;;;;18.97;15.43;;;5.30;99.90;;;;;;5048532;28;20511;-40
2020/12/09 01:34:06;;;;;;;17.23;15.20;;;5.20;99.90;;;;;;5047977;28;20511;-39
2020/12/09 01:36:31;;;;;;;19.53;15.40;;;5.10;99.90;;;;;;5050038;28;20424;-40
2020/12/09 01:38:57;;;;;;;20.47;15.57;;;5.10;99.90;;;;;;5049788;28;20202;-39
2020/12/09 01:41:24;;;;;;;22.80;15.93;;;5.00;99.90;;;;;;5049580;28;20626;-39
2020/12/09 01:43:51;;;;;;;17.60;15.10;;;4.80;99.90;;;;;;5048740;28;20202;-38
2020/12/09 01:46:29;;;;;;;20.17;16.20;;;4.80;99.90;;;;;;5049551;28;20462;-38
2020/12/09 01:48:57;;;;;;;17.90;15.20;;;4.90;99.90;;;;;;5048338;28;20710;-38
2020/12/09 01:51:27;;;;;;;19.40;15.60;;;4.60;99.90;;;;;;5049004;28;20439;-38
2020/12/09 01:53:54;;;;;;;19.47;15.40;;;4.90;99.90;;;;;;5048644;28;20485;-38
2020/12/09 01:56:20;;;;;;;19.33;16.23;;;4.60;99.90;;;;;;5049354;28;20518;-38
2020/12/09 01:58:49;;;;;;;18.30;14.80;;;4.50;99.90;;;;;;5049175;28;20926;-38
2020/12/09 02:01:15;;;;;;;16.33;13.83;;;4.40;99.90;;;;;;5049557;28;20432;-39
2020/12/09 02:03:41;;;;;;;21.13;15.70;;;4.50;99.90;;;;;;5048361;28;20440;-39
2020/12/09 02:06:06;;;;;;;20.87;17.10;;;4.40;99.90;;;;;;5049306;28;20468;-38
2020/12/09 02:08:33;;;;;;;19.50;16.00;;;4.40;99.90;;;;;;5047799;28;20196;-38
2020/12/09 02:11:03;;;;;;;22.20;16.03;;;4.70;99.90;;;;;;5049019;28;20427;-38
2020/12/09 02:13:29;;;;;;;21.40;16.17;;;4.70;99.90;;;;;;5048504;28;20424;-39
2020/12/09 02:15:55;;;;;;;23.93;15.90;;;4.80;99.90;;;;;;5049220;28;20424;-39
2020/12/09 02:18:21;;;;;;;19.90;16.53;;;4.70;99.90;;;;;;5048792;28;20868;-38
2020/12/09 02:20:47;;;;;;;21.47;17.07;;;4.80;99.90;;;;;;5049291;28;20459;-38
2020/12/09 02:23:13;;;;;;;21.30;16.77;;;4.50;99.90;;;;;;5048409;28;20950;-40
2020/12/09 02:25:38;;;;;;;21.60;16.23;;;4.90;99.90;;;;;;5048485;28;20464;-39
2020/12/09 02:28:04;;;;;;;19.70;15.13;;;4.70;99.90;;;;;;5048794;28;20585;-38
2020/12/09 02:30:30;;;;;;;19.60;15.90;;;4.90;99.90;;;;;;5049027;28;20194;-38
2020/12/09 02:32:56;;;;;;;19.83;15.07;;;4.90;99.90;;;;;;5048339;28;20208;-38
2020/12/09 02:35:22;;;;;;;20.93;16.20;;;4.60;99.90;;;;;;5047794;28;20683;-39
2020/12/09 02:37:47;;;;;;;20.47;15.63;;;4.60;99.90;;;;;;5048609;28;20293;-39
2020/12/09 02:40:13;;;;;;;17.67;14.73;;;4.60;99.90;;;;;;5048369;28;20459;-38
2020/12/09 02:42:39;;;;;;;19.70;14.47;;;4.70;99.90;;;;;;5048492;28;20276;-39
2020/12/09 02:45:05;;;;;;;17.40;14.07;;;4.90;99.90;;;;;;5047743;28;20205;-38
2020/12/09 02:47:30;;;;;;;19.10;15.10;;;4.90;99.90;;;;;;5048488;28;20710;-39
2020/12/09 02:49:56;;;;;;;18.80;14.83;;;5.00;99.90;;;;;;5048387;28;20416;-39
2020/12/09 02:52:22;;;;;;;21.47;16.70;;;4.70;99.90;;;;;;5048374;28;20569;-39
2020/12/09 02:54:48;;;;;;;18.30;15.00;;;5.00;99.90;;;;;;5047753;28;20193;-38
2020/12/09 02:57:13;;;;;;;24.80;16.37;;;4.90;99.90;;;;;;5048255;28;20589;-38
2020/12/09 02:59:39;;;;;;;18.37;14.60;;;4.80;99.90;;;;;;5048188;28;20193;-38
2020/12/09 03:02:05;;;;;;;19.60;15.47;;;5.10;99.90;;;;;;5048312;28;20646;-38
2020/12/09 03:04:31;;;;;;;19.93;15.83;;;5.10;99.90;;;;;;5047300;28;20212;-39
2020/12/09 03:06:56;;;;;;;22.07;16.17;;;5.10;99.90;;;;;;5048407;28;20272;-38
2020/12/09 03:09:22;;;;;;;19.90;15.67;;;4.90;99.90;;;;;;5047781;28;20428;-38
2020/12/09 03:11:48;;;;;;;20.57;15.37;;;4.90;99.90;;;;;;5048123;28;20201;-38
2020/12/09 03:14:14;;;;;;;20.07;15.03;;;4.90;99.90;;;;;;5047367;28;20666;-39
2020/12/09 03:16:39;;;;;;;20.83;15.90;;;5.20;99.90;;;;;;5047981;28;20300;-39
2020/12/09 03:19:05;;;;;;;19.40;15.60;;;5.00;99.90;;;;;;5048259;28;20225;-39
2020/12/09 03:21:31;;;;;;;23.77;17.67;;;4.90;99.90;;;;;;5047700;28;20197;-41
2020/12/09 03:23:57;;;;;;;25.37;17.63;;;4.60;99.90;;;;;;5047362;28;20194;-38
2020/12/09 03:26:26;;;;;;;25.20;17.03;;;4.60;99.90;;;;;;5047565;28;20591;-38
2020/12/09 03:28:53;;;;;;;23.20;17.23;;;4.60;99.90;;;;;;5047864;28;20424;-39
2020/12/09 03:31:18;;;;;;;22.03;16.23;;;4.70;99.90;;;;;;5048024;28;20428;-38
2020/12/09 03:33:44;;;;;;;24.30;17.60;;;4.60;99.90;;;;;;5047191;28;20417;-39
2020/12/09 03:36:10;;;;;;;23.43;17.47;;;4.50;99.90;;;;;;5047490;28;20205;-38
2020/12/09 03:38:36;;;;;;;24.87;17.00;;;4.80;99.90;;;;;;5047545;28;20710;-39
2020/12/09 03:41:02;;;;;;;22.60;16.87;;;4.70;99.90;;;;;;5047489;28;20202;-38
2020/12/09 03:43:27;;;;;;;23.87;17.33;;;4.60;99.90;;;;;;5047248;28;20286;-39
2020/12/09 03:45:53;;;;;;;25.20;17.80;;;4.70;99.90;;;;;;5047389;28;20213;-39
2020/12/09 03:48:19;;;;;;;24.00;17.40;;;4.70;99.90;;;;;;5047803;28;20623;-39
2020/12/09 03:50:44;;;;;;;25.83;17.33;;;4.70;99.90;;;;;;5047740;28;20614;-39
2020/12/09 03:53:10;;;;;;;25.23;18.20;;;4.50;99.90;;;;;;5046679;28;20266;-38
2020/12/09 03:55:36;;;;;;;23.37;17.17;;;4.70;99.90;;;;;;5047395;28;20548;-39
2020/12/09 03:58:01;;;;;;;26.73;18.63;;;4.80;99.90;;;;;;5047842;28;20185;-39
2020/12/09 04:00:28;;;;;;;26.00;18.10;;;4.60;99.90;;;;;;5047729;28;20228;-38
2020/12/09 04:02:54;;;;;;;23.77;16.30;;;4.70;99.90;;;;;;5046941;28;20181;-38
2020/12/09 04:05:19;;;;;;;26.73;19.10;;;4.70;99.90;;;;;;5047009;28;20546;-38
2020/12/09 04:07:45;;;;;;;29.70;18.93;;;4.60;99.90;;;;;;5046893;28;20507;-38
2020/12/09 04:10:12;;;;;;;24.80;17.80;;;4.60;99.90;;;;;;5047453;28;20577;-39
2020/12/09 04:12:38;;;;;;;27.83;18.77;;;4.40;99.90;;;;;;5047829;28;20657;-38
2020/12/09 04:15:04;;;;;;;25.07;18.63;;;4.60;99.90;;;;;;5047427;28;20427;-39
2020/12/09 04:17:29;;;;;;;25.97;17.50;;;4.50;99.90;;;;;;5051035;28;20258;-39
2020/12/09 04:19:55;;;;;;;27.97;18.30;;;4.60;99.90;;;;;;5051235;28;20429;-38
2020/12/09 04:22:21;;;;;;;26.40;18.60;;;4.60;99.90;;;;;;5050663;28;20185;-38
2020/12/09 04:24:47;;;;;;;23.60;17.40;;;4.80;99.90;;;;;;5050639;28;20911;-38
2020/12/09 04:27:12;;;;;;;26.90;17.67;;;4.80;99.90;;;;;;5050926;28;20209;-39
2020/12/09 04:29:38;;;;;;;29.03;20.60;;;4.90;99.90;;;;;;5037764;28;20193;-38
2020/12/09 04:32:05;;;;;;;27.30;19.50;;;4.70;99.90;;;;;;5050809;28;20752;-38
2020/12/09 04:34:33;;;;;;;26.43;17.80;;;4.60;99.90;;;;;;5050344;28;20668;-39
2020/12/09 04:36:59;;;;;;;26.93;18.53;;;4.50;99.90;;;;;;5050710;28;20424;-38
2020/12/09 04:39:25;;;;;;;25.77;18.10;;;4.60;99.90;;;;;;5050800;28;20431;-38
2020/12/09 04:41:51;;;;;;;29.97;20.33;;;4.90;99.90;;;;;;5050809;28;20420;-38
2020/12/09 04:44:16;;;;;;;26.57;19.00;;;4.50;99.90;;;;;;5050305;28;20431;-38
2020/12/09 04:46:50;;;;;;;27.97;19.20;;;4.60;99.90;;;;;;5049484;28;20822;-38
2020/12/09 04:49:18;;;;;;;28.20;19.97;;;4.50;99.90;;;;;;5050738;28;20606;-40
2020/12/09 04:52:05;;;;;;;30.23;19.07;;;4.60;99.90;;;;;;5051055;28;20490;-39
2020/12/09 04:54:39;;;;;;;26.37;18.47;;;4.60;99.90;;;;;;5049816;28;20491;-38
2020/12/09 04:57:13;;;;;;;29.27;20.00;;;4.80;99.90;;;;;;5050583;28;20424;-39
2020/12/09 04:59:50;;;;;;;33.20;20.40;;;4.60;99.90;;;;;;5050426;28;20443;-39
2020/12/09 05:02:16;;;;;;;29.50;18.97;;;4.70;99.90;;;;;;5050476;28;20507;-38
2020/12/09 05:04:42;;;;;;;28.13;19.63;;;4.90;99.90;;;;;;5049623;28;20565;-39
2020/12/09 05:07:09;;;;;;;27.27;20.20;;;4.60;99.90;;;;;;5050587;28;20205;-38
2020/12/09 05:09:44;;;;;;;32.53;19.80;;;4.60;99.90;;;;;;5050315;28;20266;-39
2020/12/09 05:12:17;;;;;;;27.90;19.70;;;4.60;99.90;;;;;;5050087;28;20794;-39
2020/12/09 05:14:48;;;;;;;27.13;19.37;;;4.60;99.90;;;;;;5049568;28;20781;-38
2020/12/09 05:17:17;;;;;;;27.90;19.40;;;4.60;99.90;;;;;;5050146;28;20466;-38
2020/12/09 05:19:43;;;;;;;28.77;21.03;;;4.70;99.90;;;;;;5050259;28;20420;-39
2020/12/09 05:22:14;;;;;;;30.30;20.33;;;4.80;99.90;;;;;;5049993;28;20914;-39
2020/12/09 05:24:39;;;;;;;27.53;19.30;;;4.60;99.90;;;;;;5048989;28;20432;-38
2020/12/09 05:27:05;;;;;;;28.83;18.60;;;4.60;99.90;;;;;;5048487;28;20435;-39
2020/12/09 05:29:31;;;;;;;28.00;19.00;;;4.70;99.90;;;;;;5048640;28;20216;-39
2020/12/09 05:32:02;;;;;;;26.77;19.30;;;4.50;99.90;;;;;;5050042;28;20177;-39
2020/12/09 05:34:33;;;;;;;27.43;19.60;;;4.80;99.90;;;;;;5049024;28;20200;-39
2020/12/09 05:37:03;;;;;;;26.23;18.37;;;4.70;99.90;;;;;;5049785;28;20923;-40
2020/12/09 05:39:29;;;;;;;30.50;20.77;;;4.70;99.90;;;;;;5049733;28;20511;-39
2020/12/09 05:41:55;;;;;;;28.17;19.63;;;4.80;99.90;;;;;;5049769;28;20426;-38
2020/12/09 05:44:22;;;;;;;29.53;20.10;;;4.60;99.90;;;;;;5049003;28;20837;-38
2020/12/09 05:47:04;;;;;;;28.50;18.37;;;4.70;99.90;;;;;;5049928;28;20471;-39
2020/12/09 05:49:36;;;;;;;28.90;19.97;;;4.90;99.90;;;;;;5049548;28;20424;-38
2020/12/09 05:52:19;;;;;;;27.80;19.23;;;4.80;99.90;;;;;;5047484;28;20486;-39
2020/12/09 05:54:47;;;;;;;29.40;20.00;;;4.90;99.90;;;;;;5037822;28;21041;-39
2020/12/09 05:57:15;;;;;;;27.00;20.20;;;4.70;99.90;;;;;;5049489;28;20765;-38
2020/12/09 05:59:48;;;;;;;29.27;19.90;;;4.90;99.90;;;;;;5049329;28;20439;-40
2020/12/09 06:02:19;;;;;;;31.37;20.90;;;4.50;99.90;;;;;;5049167;28;20408;-39
2020/12/09 06:04:45;;;;;;;27.40;20.60;;;4.80;99.90;;;;;;5047618;28;20424;-39
2020/12/09 06:07:11;;;;;;;26.73;18.57;;;4.60;99.90;;;;;;5049249;28;20415;-39
2020/12/09 06:09:38;;;;;;;28.63;20.03;;;4.80;99.90;;;;;;5049378;28;20420;-40
2020/12/09 06:12:04;;;;;;;26.50;20.00;;;4.80;99.90;;;;;;5049034;28;20314;-38
2020/12/09 06:14:30;;;;;;;29.20;19.37;;;4.80;99.90;;;;;;5048569;28;20420;-38
2020/12/09 06:16:56;;;;;;;28.87;20.10;;;5.10;99.90;;;;;;5048525;28;20814;-38
2020/12/09 06:19:23;;;;;;;26.33;20.03;;;5.10;99.90;;;;;;5049098;28;20425;-39
2020/12/09 06:21:56;;;;;;;26.47;19.53;;;4.90;99.90;;;;;;5048927;28;20190;-39
2020/12/09 06:24:22;;;;;;;26.40;18.93;;;4.90;99.90;;;;;;5048431;28;20962;-39
2020/12/09 06:26:49;;;;;;;30.13;19.50;;;4.80;99.90;;;;;;5048618;28;20722;-39
2020/12/09 06:29:21;;;;;;;30.73;21.23;;;5.00;99.90;;;;;;5048381;28;20930;-39
2020/12/09 06:32:01;;;;;;;30.80;18.70;;;4.80;99.90;;;;;;5048724;28;20509;-38
2020/12/09 06:34:26;;;;;;;28.50;20.13;;;4.60;99.90;;;;;;5048224;28;20424;-39
2020/12/09 06:37:12;;;;;;;28.53;20.80;;;4.80;99.90;;;;;;5048541;28;20572;-39
2020/12/09 06:39:38;;;;;;;31.20;23.00;;;4.40;99.90;;;;;;5046892;28;20202;-39
2020/12/09 06:42:05;;;;;;;34.70;22.30;;;4.40;99.90;;;;;;5048571;28;20434;-38
2020/12/09 06:44:31;;;;;;;33.40;22.83;;;4.40;99.90;;;;;;5047998;28;20420;-39
2020/12/09 06:46:58;;;;;;;32.30;22.17;;;4.70;99.90;;;;;;5048411;28;20899;-38
2020/12/09 06:49:30;;;;;;;29.97;21.60;;;4.60;99.90;;;;;;5048492;28;20493;-39
2020/12/09 06:51:56;;;;;;;35.20;22.67;;;4.60;99.90;;;;;;5048622;28;20421;-39
2020/12/09 06:54:36;;;;;;;30.97;22.47;;;4.70;99.90;;;;;;5067700;28;20803;-39
2020/12/09 06:57:20;;;;;;;35.03;23.13;;;4.50;99.90;;;;;;5068176;28;20510;-39
2020/12/09 06:59:48;;;;;;;34.90;21.30;;;4.30;99.90;;;;;;5068355;28;20419;-39
2020/12/09 07:02:27;;;;;;;33.70;22.43;;;4.60;99.90;;;;;;5068009;28;20470;-39
2020/12/09 07:04:53;;;;;;;35.70;23.13;;;4.80;99.90;;;;;;5055050;28;20436;-39
2020/12/09 07:07:27;;;;;;;31.83;22.70;;;4.70;99.90;;;;;;5042483;28;20952;-39
2020/12/09 07:09:53;;;;;;;36.63;24.80;;;4.70;99.90;;;;;;5046788;28;20200;-41
2020/12/09 07:12:20;;;;;;;35.97;23.47;;;4.50;99.90;;;;;;5041663;28;20417;-38
2020/12/09 07:14:50;;;;;;;35.47;23.50;;;4.30;99.90;;;;;;5048015;28;20433;-38
2020/12/09 07:17:16;;;;;;;35.30;23.03;;;4.50;99.90;;;;;;5048001;28;20459;-39
2020/12/09 07:19:42;;;;;;;38.13;23.30;;;4.60;99.90;;;;;;5048264;28;20516;-39
2020/12/09 07:22:08;;;;;;;34.27;22.10;;;4.60;99.90;;;;;;5048075;28;20503;-39
2020/12/09 07:24:33;;;;;;;36.13;23.70;;;4.60;99.90;;;;;;5047227;28;20189;-38
2020/12/09 07:26:59;;;;;;;37.37;24.60;;;4.80;99.90;;;;;;5048014;28;20201;-38
2020/12/09 07:29:25;;;;;;;33.93;23.63;;;4.60;99.90;;;;;;5047676;28;20181;-39
2020/12/09 07:31:51;;;;;;;35.00;23.03;;;4.60;99.90;;;;;;5048124;28;20217;-39
2020/12/09 07:34:16;;;;;;;34.50;23.40;;;4.80;99.90;;;;;;5047192;28;20431;-40
2020/12/09 07:36:53;;;;;;;40.00;24.57;;;4.60;99.90;;;;;;5047920;28;20190;-39
2020/12/09 07:39:29;;;;;;;37.70;24.50;;;4.60;99.90;;;;;;5046990;28;20189;-39
2020/12/09 07:41:58;;;;;;;37.33;24.90;;;4.80;99.90;;;;;;5058839;28;20484;-39
2020/12/09 07:44:25;;;;;;;40.30;25.70;;;4.60;99.90;;;;;;5047005;28;20802;-39
2020/12/09 07:46:58;;;;;;;41.43;25.70;;;4.40;99.90;;;;;;5044048;28;20460;-39
2020/12/09 07:49:25;;;;;;;39.17;25.07;;;4.30;99.90;;;;;;5047620;28;20431;-39
2020/12/09 07:51:53;;;;;;;40.10;27.50;;;4.50;99.90;;;;;;5060365;28;20941;-39
2020/12/09 07:54:21;;;;;;;41.63;26.07;;;4.30;99.90;;;;;;5067132;28;20453;-39
2020/12/09 07:56:47;;;;;;;46.47;30.17;;;4.40;99.90;;;;;;5047405;28;20408;-40
2020/12/09 07:59:14;;;;;;;43.63;27.07;;;4.50;99.90;;;;;;5048227;28;20805;-39
2020/12/09 08:01:40;;;;;;;42.60;25.30;;;4.80;99.90;;;;;;5049527;28;20509;-38
2020/12/09 08:04:07;;;;;;;42.63;26.13;;;4.60;99.90;;;;;;5046254;28;21011;-39
2020/12/09 08:06:36;;;;;;;41.83;26.30;;;4.90;99.90;;;;;;5048643;28;20581;-38
2020/12/09 08:09:20;;;;;;;47.67;27.10;;;4.80;99.90;;;;;;5047031;28;20428;-40
2020/12/09 08:11:47;;;;;;;43.33;26.20;;;4.50;99.90;;;;;;5047601;28;20428;-38
2020/12/09 08:14:13;;;;;;;43.87;27.00;;;4.60;99.90;;;;;;5046979;28;20861;-39
2020/12/09 08:16:39;;;;;;;42.67;28.20;;;4.50;99.90;;;;;;5047561;28;20811;-40
2020/12/09 08:19:10;;;;;;;46.23;29.70;;;4.60;99.90;;;;;;5047535;28;20473;-40
2020/12/09 08:21:38;;;;;;;50.93;30.00;;;4.50;99.90;;;;;;5047472;28;20835;-39
2020/12/09 08:24:13;;;;;;;48.70;30.13;;;4.70;99.90;;;;;;5046619;28;20821;-39
2020/12/09 08:26:42;;;;;;;53.40;30.00;;;4.50;99.90;;;;;;5047163;28;20463;-39
2020/12/09 08:29:16;;;;;;;48.47;29.17;;;4.80;99.90;;;;;;5047347;28;20763;-39
2020/12/09 08:31:41;;;;;;;49.70;29.90;;;4.60;99.90;;;;;;5047651;28;20507;-39
2020/12/09 08:34:14;;;;;;;50.00;30.83;;;4.60;99.90;;;;;;5046388;28;20500;-39
2020/12/09 08:36:40;;;;;;;46.53;29.23;;;4.70;99.90;;;;;;5052632;28;20189;-39
2020/12/09 08:39:06;;;;;;;52.67;33.20;;;4.50;99.90;;;;;;5061986;28;20502;-39
2020/12/09 08:41:36;;;;;;;48.13;28.50;;;4.70;99.90;;;;;;5067371;28;20411;-39
2020/12/09 08:44:04;;;;;;;49.60;30.90;;;4.60;99.90;;;;;;5048603;28;20947;-38
2020/12/09 08:46:30;;;;;;;50.97;31.53;;;4.70;99.90;;;;;;5067242;28;20471;-39
2020/12/09 08:48:57;;;;;;;52.80;31.00;;;4.50;99.90;;;;;;5066958;28;20404;-39
2020/12/09 08:51:33;;;;;;;49.87;30.87;;;4.60;99.90;;;;;;5067189;28;20506;-39
2020/12/09 08:54:01;;;;;;;51.07;29.93;;;4.50;99.90;;;;;;5066574;28;20490;-39
2020/12/09 08:56:32;;;;;;;46.60;28.33;;;4.60;99.90;;;;;;5066908;28;20416;-38
2020/12/09 08:58:58;;;;;;;48.73;31.27;;;4.50;99.90;;;;;;5067138;28;20949;-39
2020/12/09 09:01:24;;;;;;;46.60;29.50;;;4.60;99.90;;;;;;5067490;28;20407;-39
2020/12/09 09:03:56;;;;;;;49.80;30.10;;;4.30;99.90;;;;;;5069935;28;20424;-39
2020/12/09 09:06:22;;;;;;;47.80;30.90;;;4.50;99.90;;;;;;5070175;28;20562;-39
2020/12/09 09:08:48;;;;;;;51.17;30.77;;;4.50;99.90;;;;;;5070586;28;20968;-38
2020/12/09 09:11:21;;;;;;;51.07;30.50;;;4.50;99.90;;;;;;5070346;28;20204;-38
2020/12/09 09:13:47;;;;;;;53.03;31.60;;;4.50;99.90;;;;;;5069706;28;20663;-39
2020/12/09 09:16:12;;;;;;;53.47;33.50;;;4.60;99.90;;;;;;5069875;28;20427;-39
2020/12/09 09:18:38;;;;;;;52.43;31.33;;;4.50;99.90;;;;;;5070258;28;20658;-38
2020/12/09 09:21:03;;;;;;;52.17;33.20;;;4.40;99.90;;;;;;5070168;28;20181;-38
2020/12/09 09:23:29;;;;;;;57.87;32.83;;;4.40;99.90;;;;;;5069428;28;20201;-38
2020/12/09 09:25:55;;;;;;;57.37;33.67;;;4.30;99.90;;;;;;5070064;28;20237;-39
2020/12/09 09:28:20;;;;;;;60.17;34.13;;;4.50;99.90;;;;;;5057420;28;20194;-39
2020/12/09 09:30:46;;;;;;;57.33;35.80;;;4.40;99.90;;;;;;5042711;28;20666;-39
2020/12/09 09:33:12;;;;;;;64.53;37.43;;;4.20;99.90;;;;;;5049260;28;20174;-39
2020/12/09 09:35:37;;;;;;;56.07;35.20;;;4.20;99.90;;;;;;5050186;28;20199;-39
2020/12/09 09:38:03;;;;;;;72.83;40.20;;;4.40;99.90;;;;;;5049883;28;20773;-39
2020/12/09 09:40:29;;;;;;;71.90;39.20;;;4.30;99.90;;;;;;5048657;28;20354;-39
2020/12/09 09:42:55;;;;;;;64.13;35.90;;;4.20;99.90;;;;;;5049217;28;20573;-39
2020/12/09 09:45:22;;;;;;;70.53;37.90;;;4.30;99.90;;;;;;5049698;28;20209;-39
2020/12/09 09:47:48;;;;;;;59.37;36.53;;;4.30;99.90;;;;;;5049869;28;20432;-39
2020/12/09 09:50:14;;;;;;;59.50;36.83;;;4.40;99.90;;;;;;5048644;28;20420;-38
2020/12/09 09:52:39;;;;;;;66.67;35.37;;;4.20;99.90;;;;;;5049415;28;20243;-39
2020/12/09 09:55:05;;;;;;;66.63;35.70;;;4.20;99.90;;;;;;5049040;28;20412;-39
2020/12/09 09:57:33;;;;;;;68.23;35.67;;;4.20;99.90;;;;;;5049262;28;20193;-39
2020/12/09 09:59:58;;;;;;;66.60;36.47;;;4.20;99.90;;;;;;5049776;28;20228;-40
2020/12/09 10:02:24;;;;;;;61.60;36.00;;;4.20;99.90;;;;;;5049325;28;20951;-41
2020/12/09 10:04:50;;;;;;;60.80;33.87;;;4.30;99.90;;;;;;5049006;28;20664;-39
2020/12/09 10:07:16;;;;;;;59.60;34.60;;;4.40;99.90;;;;;;5049788;28;20493;-39
2020/12/09 10:09:42;;;;;;;61.70;34.30;;;4.60;99.90;;;;;;5049489;28;20553;-39
2020/12/09 10:12:07;;;;;;;54.53;33.80;;;4.60;99.90;;;;;;5049194;28;20189;-39
2020/12/09 10:14:33;;;;;;;58.70;34.20;;;4.50;99.90;;;;;;5047539;28;20213;-39
2020/12/09 10:17:00;;;;;;;51.87;32.90;;;4.80;99.90;;;;;;5049182;28;20625;-39
2020/12/09 10:19:26;;;;;;;55.13;31.93;;;4.60;99.90;;;;;;5049150;28;20424;-39
2020/12/09 10:21:51;;;;;;;54.90;33.07;;;4.60;99.90;;;;;;5049162;28;20434;-39
2020/12/09 10:24:17;;;;;;;50.00;31.77;;;4.70;99.90;;;;;;5048333;28;20190;-39
2020/12/09 10:26:44;;;;;;;52.93;31.10;;;4.70;99.90;;;;;;5048578;28;20224;-39
2020/12/09 10:29:11;;;;;;;47.57;32.67;;;4.50;99.90;;;;;;5048835;28;20232;-39
2020/12/09 10:31:39;;;;;;;51.77;31.20;;;4.90;99.90;;;;;;5049077;28;20462;-39
2020/12/09 10:34:07;;;;;;;56.30;31.67;;;4.50;99.90;;;;;;5048767;28;20812;-39
2020/12/09 10:36:33;;;;;;;49.73;31.33;;;4.40;99.90;;;;;;5047785;28;20438;-40
2020/12/09 10:38:59;;;;;;;54.30;31.77;;;4.50;99.90;;;;;;5047493;28;20460;-39
2020/12/09 10:41:25;;;;;;;55.27;32.63;;;4.60;99.90;;;;;;5048726;28;20472;-39
2020/12/09 10:43:55;;;;;;;56.40;32.73;;;4.20;99.90;;;;;;5048229;28;20182;-38
2020/12/09 10:46:21;;;;;;;50.63;31.80;;;4.50;99.90;;;;;;5048966;28;20909;-39
2020/12/09 10:48:47;;;;;;;50.97;31.30;;;4.70;99.90;;;;;;5048501;28;20429;-40
2020/12/09 10:51:14;;;;;;;53.90;32.00;;;4.80;99.90;;;;;;5048873;28;20425;-39
2020/12/09 10:53:40;;;;;;;48.20;27.53;;;4.80;99.90;;;;;;5047788;28;20848;-40
2020/12/09 10:56:05;;;;;;;52.07;30.70;;;4.70;99.90;;;;;;5046994;28;20436;-39
2020/12/09 10:58:31;;;;;;;51.07;31.30;;;4.90;99.90;;;;;;5047082;28;20304;-39
2020/12/09 11:00:57;;;;;;;51.87;30.30;;;4.90;99.90;;;;;;5048360;28;20190;-39
2020/12/09 11:03:23;;;;;;;49.90;29.40;;;4.70;99.90;;;;;;5047766;28;20193;-39
2020/12/09 11:05:50;;;;;;;56.03;32.73;;;4.70;99.90;;;;;;5048145;28;21162;-39
2020/12/09 11:08:16;;;;;;;53.20;32.60;;;5.00;99.90;;;;;;5048224;28;20478;-39
2020/12/09 11:10:41;;;;;;;54.33;32.17;;;5.30;99.90;;;;;;5047868;28;20942;-39
2020/12/09 11:13:07;;;;;;;53.93;30.77;;;5.00;99.90;;;;;;5047528;28;20566;-39
2020/12/09 11:15:33;;;;;;;53.40;32.40;;;5.10;99.90;;;;;;5046524;28;20486;-39
2020/12/09 11:17:59;;;;;;;50.80;32.37;;;4.80;99.90;;;;;;5046734;28;20274;-39
2020/12/09 11:20:26;;;;;;;56.60;31.93;;;5.00;99.90;;;;;;5047759;28;20970;-39
2020/12/09 11:22:51;;;;;;;52.90;32.77;;;4.90;99.90;;;;;;5046120;28;20459;-39
2020/12/09 11:25:17;;;;;;;54.73;33.43;;;4.90;99.90;;;;;;5047286;28;20507;-38
2020/12/09 11:27:43;;;;;;;53.30;32.37;;;4.70;99.90;;;;;;5047895;28;20204;-39
2020/12/09 11:30:08;;;;;;;52.60;32.40;;;4.80;99.90;;;;;;5048096;28;20195;-39
2020/12/09 11:32:34;;;;;;;56.30;33.17;;;5.00;99.90;;;;;;5047937;28;20205;-38
2020/12/09 11:35:01;;;;;;;55.60;33.30;;;4.80;99.90;;;;;;5047248;28;20276;-39
2020/12/09 11:37:27;;;;;;;55.07;33.20;;;5.00;99.90;;;;;;5047708;28;20432;-39
2020/12/09 11:39:53;;;;;;;62.73;33.83;;;4.80;99.90;;;;;;5047586;28;20420;-40
2020/12/09 11:42:19;;;;;;;54.67;33.43;;;5.00;99.90;;;;;;5047843;28;20190;-39
2020/12/09 11:44:44;;;;;;;51.47;30.37;;;4.90;99.90;;;;;;5047224;28;20431;-39
2020/12/09 11:47:10;;;;;;;54.17;31.50;;;5.00;99.90;;;;;;5047378;28;20653;-42
2020/12/09 11:49:36;;;;;;;57.40;31.10;;;5.10;99.90;;;;;;5047912;28;20189;-39
2020/12/09 11:52:01;;;;;;;57.83;32.17;;;5.40;99.90;;;;;;5047425;28;20703;-39
2020/12/09 11:54:27;;;;;;;50.07;31.20;;;5.10;99.90;;;;;;5046794;28;20197;-39
2020/12/09 11:56:56;;;;;;;53.33;32.03;;;5.20;99.90;;;;;;5047539;28;20194;-39
2020/12/09 11:59:23;;;;;;;52.10;29.80;;;5.50;99.90;;;;;;5047682;28;20254;-39
2020/12/09 12:01:48;;;;;;;52.27;30.20;;;5.80;99.90;;;;;;5047385;28;20416;-39
2020/12/09 12:04:14;;;;;;;56.23;31.90;;;5.70;99.90;;;;;;5046848;28;20435;-40
2020/12/09 12:06:40;;;;;;;49.87;30.07;;;5.80;99.90;;;;;;5047092;28;20282;-39
2020/12/09 12:09:06;;;;;;;46.43;28.83;;;5.80;99.90;;;;;;5045924;28;20440;-39
2020/12/09 12:11:31;;;;;;;54.67;30.90;;;6.10;99.90;;;;;;5047110;28;20239;-39
2020/12/09 12:13:57;;;;;;;50.50;28.23;;;6.10;99.90;;;;;;5046795;28;20656;-39
2020/12/09 12:16:24;;;;;;;46.60;27.97;;;6.20;99.90;;;;;;5047118;28;20189;-39
2020/12/09 12:18:51;;;;;;;51.37;30.57;;;6.50;99.90;;;;;;5046240;28;20408;-38
2020/12/09 12:21:20;;;;;;;48.47;29.77;;;6.40;99.90;;;;;;5047118;28;20416;-39
2020/12/09 12:23:46;;;;;;;51.10;29.60;;;6.30;99.90;;;;;;5046660;28;20456;-39
2020/12/09 12:26:20;;;;;;;49.33;30.03;;;6.00;99.90;;;;;;5047318;28;20910;-39
2020/12/09 12:28:46;;;;;;;52.20;30.80;;;5.70;99.90;;;;;;5047073;28;20938;-39
2020/12/09 12:31:14;;;;;;;53.90;31.00;;;5.80;99.90;;;;;;5047601;28;20545;-39
2020/12/09 12:33:40;;;;;;;49.67;29.33;;;5.60;99.90;;;;;;5046392;28;20455;-39
2020/12/09 12:36:07;;;;;;;50.40;29.17;;;5.70;99.90;;;;;;5047536;28;20469;-38
2020/12/09 12:38:33;;;;;;;45.60;27.83;;;5.80;99.90;;;;;;5051026;28;20424;-38